createdAt,value
2023-11-25T00:01:48.518Z,97205.00
2023-11-25T00:04:23.148Z,97213.00
2023-11-25T00:06:57.968Z,97213.00
2023-11-25T00:09:33.125Z,97206.00
2023-11-25T00:12:08.945Z,97220.00
2023-11-25T00:14:44.937Z,97220.00
2023-11-25T00:17:19.928Z,97223.00
2023-11-25T00:19:54.191Z,97229.00
2023-11-25T00:22:28.547Z,97232.00
2023-11-25T00:25:05.480Z,97229.00
2023-11-25T00:27:39.725Z,97234.00
2023-11-25T00:30:16.402Z,97235.00
2023-11-25T00:32:50.733Z,97243.00
2023-11-25T00:35:25.138Z,97243.00
2023-11-25T00:37:59.415Z,97262.00
2023-11-25T00:40:35.902Z,97262.00
2023-11-25T00:43:11.492Z,97269.00
2023-11-25T00:45:47.522Z,97273.00
2023-11-25T00:48:21.818Z,97268.00
2023-11-25T00:50:55.991Z,97290.00
2023-11-25T00:53:30.552Z,97275.00
2023-11-25T00:56:04.768Z,97293.00
2023-11-25T00:58:39.063Z,97299.00
2023-11-25T01:01:14.886Z,97282.00
2023-11-25T01:03:49.128Z,97285.00
2023-11-25T01:06:23.343Z,97295.00
2023-11-25T01:08:57.458Z,97298.00
2023-11-25T01:11:31.710Z,97310.00
2023-11-25T01:14:06.666Z,97303.00
2023-11-25T01:16:42.510Z,97311.00
2023-11-25T01:19:17.018Z,97309.00
2023-11-25T01:21:51.779Z,97317.00
2023-11-25T01:24:26.006Z,97327.00
2023-11-25T01:27:00.261Z,97332.00
2023-11-25T01:29:36.298Z,97321.00
2023-11-25T01:32:11.867Z,97332.00
2023-11-25T01:34:46.229Z,97340.00
2023-11-25T01:37:23.607Z,97327.00
2023-11-25T01:39:57.756Z,97338.00
2023-11-25T01:42:32.422Z,97348.00
2023-11-25T01:45:09.661Z,97347.00
2023-11-25T01:47:45.436Z,97346.00
2023-11-25T01:50:19.742Z,97362.00
2023-11-25T01:52:54.753Z,97365.00
2023-11-25T01:55:29.684Z,97361.00
2023-11-25T01:58:04.577Z,97366.00
2023-11-25T02:00:40.964Z,97369.00
2023-11-25T02:03:16.842Z,97369.00
2023-11-25T02:05:51.150Z,97373.00
2023-11-25T02:08:25.343Z,97386.00
2023-11-25T02:11:01.792Z,97393.00
2023-11-25T02:13:37.057Z,97397.00
2023-11-25T02:16:12.018Z,97402.00
2023-11-25T02:18:47.699Z,97402.00
2023-11-25T02:21:22.120Z,97409.00
2023-11-25T02:23:57.670Z,97412.00
2023-11-25T02:26:31.976Z,97420.00
2023-11-25T02:29:06.885Z,97407.00
2023-11-25T02:31:44.097Z,97410.00
2023-11-25T02:34:18.534Z,97419.00
2023-11-25T02:36:52.652Z,97425.00
2023-11-25T02:39:29.502Z,97429.00
2023-11-25T02:42:06.989Z,97424.00
2023-11-25T02:44:42.099Z,97433.00
2023-11-25T02:47:16.283Z,97429.00
2023-11-25T02:49:51.495Z,97438.00
2023-11-25T02:52:27.518Z,97438.00
2023-11-25T02:55:03.459Z,97443.00
2023-11-25T02:57:38.229Z,97459.00
2023-11-25T03:00:18.669Z,97466.00
2023-11-25T03:03:01.150Z,97488.00
2023-11-25T03:05:35.741Z,97484.00
2023-11-25T03:08:13.653Z,97494.00
2023-11-25T03:10:51.955Z,97485.00
2023-11-25T03:13:26.415Z,97495.00
2023-11-25T03:16:00.732Z,97510.00
2023-11-25T03:18:35.729Z,97503.00
2023-11-25T03:21:11.299Z,97513.00
2023-11-25T03:23:45.433Z,97513.00
2023-11-25T03:26:21.051Z,97517.00
2023-11-25T03:28:56.392Z,97522.00
2023-11-25T03:31:30.825Z,97512.00
2023-11-25T03:34:06.070Z,97517.00
2023-11-25T03:36:41.150Z,97523.00
2023-11-25T03:39:15.377Z,97526.00
2023-11-25T03:41:50.807Z,97525.00
2023-11-25T03:44:25.560Z,97534.00
2023-11-25T03:47:00.354Z,97533.00
2023-11-25T03:49:36.640Z,97537.00
2023-11-25T03:52:11.289Z,97543.00
2023-11-25T03:54:45.502Z,97540.00
2023-11-25T03:57:22.820Z,97533.00
2023-11-25T03:59:57.003Z,97542.00
2023-11-25T04:02:31.213Z,97535.00
2023-11-25T04:05:06.196Z,97538.00
2023-11-25T04:07:42.542Z,97533.00
2023-11-25T04:10:17.319Z,97548.00
2023-11-25T04:12:53.672Z,97552.00
2023-11-25T04:15:28.142Z,97562.00
2023-11-25T04:18:02.395Z,97566.00
2023-11-25T04:20:36.776Z,97565.00
2023-11-25T04:23:11.790Z,97569.00
2023-11-25T04:25:46.806Z,97577.00
2023-11-25T04:28:22.281Z,97573.00
2023-11-25T04:30:56.405Z,97581.00
2023-11-25T04:33:30.502Z,97582.00
2023-11-25T04:36:05.330Z,97583.00
2023-11-25T04:38:43.161Z,97591.00
2023-11-25T04:41:17.780Z,97597.00
2023-11-25T04:43:53.660Z,97607.00
2023-11-25T04:46:28.488Z,97604.00
2023-11-25T04:49:03.159Z,97603.00
2023-11-25T04:51:37.581Z,97611.00
2023-11-25T04:54:12.328Z,97619.00
2023-11-25T04:56:46.453Z,97623.00
2023-11-25T04:59:21.964Z,97622.00
2023-11-25T05:01:56.149Z,97623.00
2023-11-25T05:04:31.047Z,97635.00
2023-11-25T05:07:06.332Z,97628.00
2023-11-25T05:09:42.553Z,97627.00
2023-11-25T05:12:16.740Z,97627.00
2023-11-25T05:14:52.294Z,97627.00
2023-11-25T05:17:28.769Z,97636.00
2023-11-25T05:20:03.209Z,97643.00
2023-11-25T05:22:40.092Z,97642.00
2023-11-25T05:25:14.804Z,97640.00
2023-11-25T05:27:49.289Z,97643.00
2023-11-25T05:30:24.745Z,97641.00
2023-11-25T05:32:58.868Z,97636.00
2023-11-25T05:35:33.153Z,97633.00
2023-11-25T05:38:07.323Z,97630.00
2023-11-25T05:40:42.597Z,97643.00
2023-11-25T05:43:17.784Z,97638.00
2023-11-25T05:45:53.401Z,97648.00
2023-11-25T05:48:28.505Z,97646.00
2023-11-25T05:51:02.677Z,97652.00
2023-11-25T05:53:37.081Z,97645.00
2023-11-25T05:56:11.209Z,97651.00
2023-11-25T05:58:45.730Z,97666.00
2023-11-25T06:01:23.109Z,97664.00
2023-11-25T06:03:58.098Z,97655.00
2023-11-25T06:06:32.366Z,97646.00
2023-11-25T06:09:09.937Z,97634.00
2023-11-25T06:11:44.201Z,97640.00
2023-11-25T06:14:20.413Z,97644.00
2023-11-25T06:16:58.451Z,97644.00
2023-11-25T06:19:33.296Z,97649.00
2023-11-25T06:22:08.328Z,97653.00
2023-11-25T06:24:42.830Z,97654.00
2023-11-25T06:27:17.415Z,97644.00
2023-11-25T06:29:51.564Z,97637.00
2023-11-25T06:32:28.646Z,97638.00
2023-11-25T06:35:02.972Z,97638.00
2023-11-25T06:37:43.789Z,97643.00
2023-11-25T06:40:18.363Z,97647.00
2023-11-25T06:42:54.530Z,97642.00
2023-11-25T06:45:28.916Z,97643.00
2023-11-25T06:48:04.828Z,97629.00
2023-11-25T06:50:41.045Z,97646.00
2023-11-25T06:53:15.566Z,97642.00
2023-11-25T06:55:50.194Z,97647.00
2023-11-25T06:58:24.366Z,97640.00
2023-11-25T07:01:01.900Z,97635.00
2023-11-25T07:03:37.758Z,97632.00
2023-11-25T07:06:12.127Z,97649.00
2023-11-25T07:08:46.916Z,97640.00
2023-11-25T07:11:22.963Z,97645.00
2023-11-25T07:13:57.336Z,97643.00
2023-11-25T07:16:31.903Z,97648.00
2023-11-25T07:19:09.307Z,97648.00
2023-11-25T07:21:43.546Z,97639.00
2023-11-25T07:24:17.779Z,97646.00
2023-11-25T07:26:56.667Z,97644.00
2023-11-25T07:29:32.915Z,97648.00
2023-11-25T07:32:11.395Z,97647.00
2023-11-25T07:34:47.301Z,97646.00
2023-11-25T07:37:21.591Z,97647.00
2023-11-25T07:39:55.862Z,97663.00
2023-11-25T07:42:30.150Z,97665.00
2023-11-25T07:45:11.308Z,97658.00
2023-11-25T07:47:46.305Z,97651.00
2023-11-25T07:50:23.000Z,97647.00
2023-11-25T07:52:57.245Z,97655.00
2023-11-25T07:55:31.625Z,97675.00
2023-11-25T07:58:06.639Z,97669.00
2023-11-25T08:00:44.266Z,97676.00
2023-11-25T08:03:18.541Z,97669.00
2023-11-25T08:05:54.808Z,97673.00
2023-11-25T08:08:28.928Z,97683.00
2023-11-25T08:11:03.277Z,97677.00
2023-11-25T08:13:40.906Z,97690.00
2023-11-25T08:16:15.243Z,97685.00
2023-11-25T08:18:50.537Z,97698.00
2023-11-25T08:21:26.035Z,97688.00
2023-11-25T08:24:01.402Z,97691.00
2023-11-25T08:26:36.684Z,97692.00
2023-11-25T08:29:12.742Z,97691.00
2023-11-25T08:31:47.029Z,97696.00
2023-11-25T08:34:21.210Z,97696.00
2023-11-25T08:36:57.648Z,97703.00
2023-11-25T08:39:33.932Z,97701.00
2023-11-25T08:42:10.415Z,97708.00
2023-11-25T08:44:46.599Z,97715.00
2023-11-25T08:47:21.068Z,97713.00
2023-11-25T08:49:55.208Z,97710.00
2023-11-25T08:52:35.266Z,97704.00
2023-11-25T08:55:11.286Z,97713.00
2023-11-25T08:57:45.637Z,97713.00
2023-11-25T09:00:21.721Z,97712.00
2023-11-25T09:02:58.966Z,97711.00
2023-11-25T09:05:34.962Z,97706.00
2023-11-25T09:08:11.536Z,97712.00
2023-11-25T09:10:45.981Z,97711.00
2023-11-25T09:13:20.678Z,97706.00
2023-11-25T09:15:54.999Z,97706.00
2023-11-25T09:18:29.191Z,97702.00
2023-11-25T09:21:03.497Z,97707.00
2023-11-25T09:23:40.140Z,97709.00
2023-11-25T09:26:14.996Z,97705.00
2023-11-25T09:28:49.170Z,97703.00
2023-11-25T09:31:23.929Z,97714.00
2023-11-25T09:34:00.064Z,97708.00
2023-11-25T09:36:34.686Z,97713.00
2023-11-25T09:39:11.168Z,97704.00
2023-11-25T09:41:45.477Z,97716.00
2023-11-25T09:44:20.812Z,97713.00
2023-11-25T09:46:55.195Z,97712.00
2023-11-25T09:49:29.459Z,97718.00
2023-11-25T09:52:05.693Z,97703.00
2023-11-25T09:54:41.213Z,97710.00
2023-11-25T09:57:19.171Z,97701.00
2023-11-25T09:59:53.433Z,97708.00
2023-11-25T10:02:31.189Z,97712.00
2023-11-25T10:05:08.067Z,97695.00
2023-11-25T10:07:43.330Z,97693.00
2023-11-25T10:10:25.016Z,97688.00
2023-11-25T10:13:01.497Z,97681.00
2023-11-25T10:15:47.646Z,97673.00
2023-11-25T10:18:21.993Z,97676.00
2023-11-25T10:20:59.142Z,97667.00
2023-11-25T10:23:34.011Z,97668.00
2023-11-25T10:26:09.863Z,97666.00
2023-11-25T10:28:47.493Z,97662.00
2023-11-25T10:31:21.953Z,97665.00
2023-11-25T10:33:58.336Z,97659.00
2023-11-25T10:36:32.481Z,97661.00
2023-11-25T10:39:09.469Z,97638.00
2023-11-25T10:41:51.231Z,97635.00
2023-11-25T10:44:28.290Z,97643.00
2023-11-25T10:47:03.844Z,97630.00
2023-11-25T10:49:40.920Z,97630.00
2023-11-25T10:52:15.115Z,97626.00
2023-11-25T10:54:51.032Z,97626.00
2023-11-25T10:57:27.151Z,97616.00
2023-11-25T11:00:05.151Z,97619.00
2023-11-25T11:02:46.625Z,97613.00
2023-11-25T11:05:40.964Z,97619.00
2023-11-25T11:08:20.193Z,97611.00
2023-11-25T11:10:58.027Z,97601.00
2023-11-25T11:13:38.410Z,97604.00
2023-11-25T11:16:19.674Z,97600.00
2023-11-25T11:18:56.855Z,97592.00
2023-11-25T11:21:36.882Z,97598.00
2023-11-25T11:24:13.882Z,97598.00
2023-11-25T11:26:56.930Z,97582.00
2023-11-25T11:29:41.390Z,97594.00
2023-11-25T11:32:21.263Z,97590.00
2023-11-25T11:34:55.662Z,97576.00
2023-11-25T11:37:39.015Z,97587.00
2023-11-25T11:40:15.476Z,97586.00
2023-11-25T11:42:49.909Z,97579.00
2023-11-25T11:45:27.389Z,97589.00
2023-11-25T11:48:04.351Z,97580.00
2023-11-25T11:50:42.664Z,97588.00
2023-11-25T11:53:17.299Z,97587.00
2023-11-25T11:55:54.779Z,97588.00
2023-11-25T11:58:31.858Z,97580.00
2023-11-25T12:01:11.003Z,97573.00
2023-11-25T12:03:45.707Z,97583.00
2023-11-25T12:06:23.250Z,97580.00
2023-11-25T12:08:58.248Z,97586.00
2023-11-25T12:11:32.603Z,97598.00
2023-11-25T12:14:07.712Z,97586.00
2023-11-25T12:16:43.626Z,97604.00
2023-11-25T12:19:19.256Z,97601.00
2023-11-25T12:21:53.587Z,97608.00
2023-11-25T12:24:27.850Z,97601.00
2023-11-25T12:27:04.360Z,97594.00
2023-11-25T12:29:38.727Z,97596.00
2023-11-25T12:32:14.304Z,97589.00
2023-11-25T12:34:50.193Z,97582.00
2023-11-25T12:37:24.320Z,97591.00
2023-11-25T12:39:58.595Z,97580.00
2023-11-25T12:42:35.226Z,97581.00
2023-11-25T12:45:09.757Z,97575.00
2023-11-25T12:47:51.636Z,97574.00
2023-11-25T12:50:26.712Z,97579.00
2023-11-25T12:53:09.413Z,97576.00
2023-11-25T12:55:45.356Z,97583.00
2023-11-25T12:58:21.557Z,97586.00
2023-11-25T13:00:57.651Z,97573.00
2023-11-25T13:03:33.989Z,97566.00
2023-11-25T13:06:10.864Z,97568.00
2023-11-25T13:08:47.465Z,97565.00
2023-11-25T13:11:21.640Z,97564.00
2023-11-25T13:13:57.451Z,97563.00
2023-11-25T13:16:31.673Z,97544.00
2023-11-25T13:19:09.903Z,97549.00
2023-11-25T13:21:44.119Z,97549.00
2023-11-25T13:24:18.389Z,97548.00
2023-11-25T13:26:52.546Z,97548.00
2023-11-25T13:29:26.600Z,97548.00
2023-11-25T13:32:00.768Z,97552.00
2023-11-25T13:34:36.288Z,97553.00
2023-11-25T13:37:10.386Z,97552.00
2023-11-25T13:39:45.043Z,97541.00
2023-11-25T13:42:19.183Z,97538.00
2023-11-25T13:44:53.239Z,97539.00
2023-11-25T13:47:27.462Z,97542.00
2023-11-25T13:50:03.005Z,97542.00
2023-11-25T13:52:37.497Z,97549.00
2023-11-25T13:55:15.012Z,97548.00
2023-11-25T13:57:49.332Z,97543.00
2023-11-25T14:00:27.656Z,97543.00
2023-11-25T14:03:02.514Z,97546.00
2023-11-25T14:05:39.422Z,97533.00
2023-11-25T14:08:17.115Z,97552.00
2023-11-25T14:10:51.298Z,97544.00
2023-11-25T14:13:25.444Z,97547.00
2023-11-25T14:16:00.140Z,97540.00
2023-11-25T14:18:34.277Z,97550.00
2023-11-25T14:21:10.970Z,97540.00
2023-11-25T14:23:45.040Z,97542.00
2023-11-25T14:26:19.148Z,97555.00
2023-11-25T14:28:53.335Z,97542.00
2023-11-25T14:31:27.721Z,97549.00
2023-11-25T14:34:02.036Z,97545.00
2023-11-25T14:36:38.492Z,97548.00
2023-11-25T14:39:19.309Z,97548.00
2023-11-25T14:41:53.387Z,97545.00
2023-11-25T14:44:27.481Z,97557.00
2023-11-25T14:47:01.647Z,97544.00
2023-11-25T14:49:35.820Z,97558.00
2023-11-25T14:52:11.912Z,97551.00
2023-11-25T14:54:46.058Z,97550.00
2023-11-25T14:57:20.168Z,97546.00
2023-11-25T14:59:54.687Z,97548.00
2023-11-25T15:02:29.367Z,97544.00
2023-11-25T15:05:03.952Z,97538.00
2023-11-25T15:07:40.518Z,97537.00
2023-11-25T15:10:14.724Z,97545.00
2023-11-25T15:12:49.232Z,97548.00
2023-11-25T15:15:23.344Z,97552.00
2023-11-25T15:17:57.558Z,97541.00
2023-11-25T15:20:31.713Z,97546.00
2023-11-25T15:23:07.466Z,97544.00
2023-11-25T15:25:42.179Z,97544.00
2023-11-25T15:28:17.324Z,97549.00
2023-11-25T15:30:51.535Z,97551.00
2023-11-25T15:33:25.749Z,97552.00
2023-11-25T15:35:59.955Z,97555.00
2023-11-25T15:38:35.531Z,97553.00
2023-11-25T15:41:12.137Z,97556.00
2023-11-25T15:43:46.279Z,97555.00
2023-11-25T15:46:20.443Z,97555.00
2023-11-25T15:48:54.681Z,97559.00
2023-11-25T15:51:28.793Z,97552.00
2023-11-25T15:54:04.328Z,97548.00
2023-11-25T15:56:39.036Z,97561.00
2023-11-25T15:59:13.186Z,97557.00
2023-11-25T16:01:47.504Z,97542.00
2023-11-25T16:04:22.254Z,97543.00
2023-11-25T16:06:56.408Z,97543.00
2023-11-25T16:09:32.170Z,97539.00
2023-11-25T16:12:07.616Z,97537.00
2023-11-25T16:14:41.724Z,97539.00
2023-11-25T16:17:17.257Z,97541.00
2023-11-25T16:19:51.381Z,97546.00
2023-11-25T16:22:26.706Z,97540.00
2023-11-25T16:25:02.798Z,97544.00
2023-11-25T16:27:37.076Z,97546.00
2023-11-25T16:30:15.044Z,97543.00
2023-11-25T16:32:49.322Z,97548.00
2023-11-25T16:35:23.820Z,97542.00
2023-11-25T16:37:57.943Z,97533.00
2023-11-25T16:40:33.797Z,97542.00
2023-11-25T16:43:07.918Z,97544.00
2023-11-25T16:45:42.073Z,97540.00
2023-11-25T16:48:16.149Z,97538.00
2023-11-25T16:50:50.421Z,97544.00
2023-11-25T16:53:25.955Z,97547.00
2023-11-25T16:56:01.981Z,97544.00
2023-11-25T16:58:36.159Z,97548.00
2023-11-25T17:01:11.231Z,97556.00
2023-11-25T17:03:45.510Z,97551.00
2023-11-25T17:06:19.892Z,97545.00
2023-11-25T17:08:54.097Z,97552.00
2023-11-25T17:11:29.532Z,97560.00
2023-11-25T17:14:03.729Z,97560.00
2023-11-25T17:16:37.907Z,97563.00
2023-11-25T17:19:12.044Z,97559.00
2023-11-25T17:21:46.113Z,97566.00
2023-11-25T17:24:20.736Z,97559.00
2023-11-25T17:26:56.773Z,97560.00
2023-11-25T17:29:31.034Z,97569.00
2023-11-25T17:32:05.732Z,97554.00
2023-11-25T17:34:40.071Z,97559.00
2023-11-25T17:37:14.392Z,97566.00
2023-11-25T17:39:49.522Z,97566.00
2023-11-25T17:42:25.398Z,97562.00
2023-11-25T17:44:59.482Z,97557.00
2023-11-25T17:47:34.108Z,97555.00
2023-11-25T17:50:09.426Z,97555.00
2023-11-25T17:52:43.579Z,97554.00
2023-11-25T17:55:17.986Z,97547.00
2023-11-25T17:57:53.437Z,97544.00
2023-11-25T18:00:27.563Z,97554.00
2023-11-25T18:03:01.829Z,97554.00
2023-11-25T18:05:37.405Z,97566.00
2023-11-25T18:08:11.663Z,97553.00
2023-11-25T18:10:45.904Z,97550.00
2023-11-25T18:13:22.073Z,97563.00
2023-11-25T18:15:56.146Z,97550.00
2023-11-25T18:18:31.562Z,97565.00
2023-11-25T18:21:07.275Z,97566.00
2023-11-25T18:23:41.441Z,97566.00
2023-11-25T18:26:16.604Z,97560.00
2023-11-25T18:28:52.219Z,97569.00
2023-11-25T18:31:26.376Z,97566.00
2023-11-25T18:34:00.493Z,97569.00
2023-11-25T18:36:34.760Z,97563.00
2023-11-25T18:39:10.980Z,97564.00
2023-11-25T18:41:45.153Z,97568.00
2023-11-25T18:44:20.612Z,97566.00
2023-11-25T18:46:54.895Z,97564.00
2023-11-25T18:49:29.193Z,97576.00
2023-11-25T18:52:03.655Z,97572.00
2023-11-25T18:54:38.313Z,97578.00
2023-11-25T18:57:14.610Z,97582.00
2023-11-25T18:59:50.623Z,97573.00
2023-11-25T19:02:25.056Z,97590.00
2023-11-25T19:04:59.555Z,97580.00
2023-11-25T19:07:33.969Z,97586.00
2023-11-25T19:10:09.301Z,97570.00
2023-11-25T19:12:43.586Z,97576.00
2023-11-25T19:15:19.113Z,97561.00
2023-11-25T19:17:53.502Z,97574.00
2023-11-25T19:20:27.945Z,97570.00
2023-11-25T19:23:02.085Z,97585.00
2023-11-25T19:25:37.524Z,97582.00
2023-11-25T19:28:11.821Z,97582.00
2023-11-25T19:30:48.280Z,97584.00
2023-11-25T19:33:22.832Z,97592.00
2023-11-25T19:35:57.228Z,97598.00
2023-11-25T19:38:31.617Z,97596.00
2023-11-25T19:41:05.916Z,97588.00
2023-11-25T19:43:40.037Z,97583.00
2023-11-25T19:46:16.259Z,97600.00
2023-11-25T19:48:50.460Z,97607.00
2023-11-25T19:51:24.639Z,97599.00
2023-11-25T19:54:01.488Z,97596.00
2023-11-25T19:56:38.945Z,97606.00
2023-11-25T19:59:13.212Z,97598.00
2023-11-25T20:01:48.847Z,97600.00
2023-11-25T20:04:23.214Z,97605.00
2023-11-25T20:07:00.023Z,97603.00
2023-11-25T20:09:34.207Z,97613.00
2023-11-25T20:12:11.136Z,97605.00
2023-11-25T20:14:45.367Z,97612.00
2023-11-25T20:17:23.749Z,97618.00
2023-11-25T20:19:57.948Z,97617.00
2023-11-25T20:22:32.040Z,97627.00
2023-11-25T20:25:07.759Z,97619.00
2023-11-25T20:27:41.990Z,97625.00
2023-11-25T20:30:17.096Z,97614.00
2023-11-25T20:32:52.985Z,97618.00
2023-11-25T20:35:27.133Z,97617.00
2023-11-25T20:38:01.358Z,97621.00
2023-11-25T20:40:35.480Z,97622.00
2023-11-25T20:43:09.589Z,97623.00
2023-11-25T20:45:43.889Z,97626.00
2023-11-25T20:48:19.776Z,97622.00
2023-11-25T20:50:54.299Z,97626.00
2023-11-25T20:53:28.455Z,97628.00
2023-11-25T20:56:02.613Z,97622.00
2023-11-25T20:58:36.770Z,97620.00
2023-11-25T21:01:11.562Z,97615.00
2023-11-25T21:03:47.105Z,97617.00
2023-11-25T21:06:21.579Z,97626.00
2023-11-25T21:08:55.713Z,97630.00
2023-11-25T21:11:29.927Z,97617.00
2023-11-25T21:14:04.034Z,97619.00
2023-11-25T21:16:38.562Z,97608.00
2023-11-25T21:19:14.420Z,97612.00
2023-11-25T21:21:48.491Z,97623.00
2023-11-25T21:24:22.746Z,97625.00
2023-11-25T21:26:57.263Z,97630.00
2023-11-25T21:29:31.933Z,97631.00
2023-11-25T21:32:09.727Z,97627.00
2023-11-25T21:34:45.653Z,97630.00
2023-11-25T21:37:19.753Z,97615.00
2023-11-25T21:39:53.925Z,97624.00
2023-11-25T21:42:28.341Z,97626.00
2023-11-25T21:45:02.473Z,97627.00
2023-11-25T21:47:36.705Z,97631.00
2023-11-25T21:50:13.032Z,97624.00
2023-11-25T21:52:47.361Z,97615.00
2023-11-25T21:55:21.505Z,97620.00
2023-11-25T21:57:55.697Z,97623.00
2023-11-25T22:00:29.798Z,97632.00
2023-11-25T22:03:04.956Z,97628.00
2023-11-25T22:05:41.269Z,97636.00
2023-11-25T22:08:15.437Z,97639.00
2023-11-25T22:10:49.617Z,97643.00
2023-11-25T22:13:23.785Z,97650.00
2023-11-25T22:15:58.218Z,97647.00
2023-11-25T22:18:32.336Z,97647.00
2023-11-25T22:21:08.322Z,97646.00
2023-11-25T22:23:48.530Z,97654.00
2023-11-25T22:26:32.905Z,97662.00
2023-11-25T22:29:07.338Z,97663.00
2023-11-25T22:31:41.628Z,97659.00
2023-11-25T22:34:15.777Z,97670.00
2023-11-25T22:36:51.250Z,97670.00
2023-11-25T22:39:25.358Z,97675.00
2023-11-25T22:41:59.586Z,97671.00
2023-11-25T22:44:33.753Z,97675.00
2023-11-25T22:47:07.989Z,97671.00
2023-11-25T22:49:42.120Z,97672.00
2023-11-25T22:52:17.825Z,97671.00
2023-11-25T22:54:52.101Z,97674.00
2023-11-25T22:57:26.837Z,97674.00
2023-11-25T23:00:02.396Z,97668.00
2023-11-25T23:02:36.753Z,97687.00
2023-11-25T23:05:11.742Z,97684.00
2023-11-25T23:07:47.412Z,97691.00
2023-11-25T23:10:21.567Z,97692.00
2023-11-25T23:12:55.683Z,97718.00
2023-11-25T23:15:30.845Z,97711.00
2023-11-25T23:18:05.136Z,97717.00
2023-11-25T23:20:39.521Z,97730.00
2023-11-25T23:23:15.093Z,97728.00
2023-11-25T23:25:49.943Z,97739.00
2023-11-25T23:28:24.546Z,97743.00
2023-11-25T23:30:58.798Z,97743.00
2023-11-25T23:33:32.960Z,97742.00
2023-11-25T23:36:08.153Z,97738.00
2023-11-25T23:38:43.642Z,97735.00
2023-11-25T23:41:17.818Z,97737.00
2023-11-25T23:43:52.157Z,97738.00
2023-11-25T23:46:27.184Z,97749.00
2023-11-25T23:49:02.123Z,97749.00
2023-11-25T23:51:36.817Z,97756.00
2023-11-25T23:54:12.328Z,97758.00
2023-11-25T23:56:46.471Z,97753.00
2023-11-25T23:59:20.611Z,97759.00
